Time;durP1;ratioP1;P1;durP2;ratioP2;P2;SDS_P1;SDS_P2;PMS_P1;PMS_P2;Temp;Humidity;BMP_temperature;BMP_pressure;BME280_temperature;BME280_humidity;BME280_pressure;Samples;Min_cycle;Max_cycle;Signal;HPM_P1;HPM_P2
2022/01/19 00:01:41;;;;;;;0.20;0.20;;;2.90;99.90;;;;;;5015812;28;20071;-74
2022/01/19 00:04:07;;;;;;;0.30;0.30;;;3.00;99.90;;;;;;4999755;28;20389;-74
2022/01/19 00:06:33;;;;;;;0.20;0.20;;;3.10;99.90;;;;;;4999459;28;20017;-74
2022/01/19 00:08:59;;;;;;;0.38;0.38;;;3.00;99.90;;;;;;5033637;28;20021;-74
2022/01/19 00:11:24;;;;;;;0.30;0.30;;;3.10;99.90;;;;;;5015692;28;20040;-74
2022/01/19 00:13:51;;;;;;;0.30;0.30;;;3.20;99.90;;;;;;5015769;28;20028;-74
2022/01/19 00:16:18;;;;;;;1.05;1.05;;;3.10;99.90;;;;;;5033410;28;20022;-74
2022/01/19 00:18:44;;;;;;;0.30;0.30;;;3.00;99.90;;;;;;5015701;28;20116;-74
2022/01/19 00:21:10;;;;;;;0.40;0.40;;;2.90;99.90;;;;;;5015533;28;20025;-73
2022/01/19 00:23:35;;;;;;;0.32;0.32;;;2.90;99.90;;;;;;5015586;28;20032;-74
2022/01/19 00:26:01;;;;;;;0.30;0.30;;;2.90;99.90;;;;;;5015634;28;20325;-74
2022/01/19 00:28:27;;;;;;;0.63;0.63;;;3.00;99.90;;;;;;5033371;28;20021;-74
2022/01/19 00:30:53;;;;;;;0.63;0.40;;;3.10;99.90;;;;;;5015596;28;20365;-74
2022/01/19 00:33:19;;;;;;;0.70;0.70;;;3.00;99.90;;;;;;5015654;28;20321;-74
2022/01/19 00:35:47;;;;;;;0.52;0.52;;;2.90;99.90;;;;;;5015193;28;20436;-74
2022/01/19 00:38:12;;;;;;;2.35;0.65;;;2.90;99.90;;;;;;5015256;28;20036;-74
2022/01/19 00:40:39;;;;;;;0.30;0.30;;;2.70;99.90;;;;;;5015361;28;20026;-73
2022/01/19 00:43:06;;;;;;;0.30;0.30;;;2.60;99.90;;;;;;5032990;28;20057;-74
2022/01/19 00:45:32;;;;;;;2.42;1.33;;;2.60;99.90;;;;;;5015281;28;20029;-74
2022/01/19 00:47:58;;;;;;;2.05;1.95;;;2.60;99.90;;;;;;5015410;28;20021;-74
2022/01/19 00:50:27;;;;;;;0.30;0.30;;;2.50;99.90;;;;;;5015205;28;20108;-74
2022/01/19 00:52:54;;;;;;;1.63;1.52;;;2.60;99.90;;;;;;5015254;28;20025;-74
2022/01/19 00:55:23;;;;;;;0.50;0.50;;;2.50;99.90;;;;;;5032883;28;20435;-74
2022/01/19 00:57:49;;;;;;;0.20;0.20;;;2.40;99.90;;;;;;5032647;28;20095;-73
2022/01/19 01:00:25;;;;;;;0.40;0.40;;;2.40;99.90;;;;;;5014964;28;20043;-74
2022/01/19 01:02:51;;;;;;;0.30;0.30;;;2.40;99.90;;;;;;5031418;28;20389;-74
2022/01/19 01:05:17;;;;;;;1.05;1.05;;;2.30;99.90;;;;;;5015018;28;20025;-74
2022/01/19 01:07:43;;;;;;;0.40;0.40;;;2.40;99.90;;;;;;5014933;28;20030;-74
2022/01/19 01:10:12;;;;;;;0.30;0.30;;;2.40;99.90;;;;;;5014798;28;20026;-74
2022/01/19 01:13:16;;;;;;;0.35;0.35;;;2.30;99.90;;;;;;5014189;28;20078;-74
2022/01/19 01:20:33;;;;;;;0.60;0.60;;;2.20;99.90;;;;;;5032472;28;20056;-74
2022/01/19 01:22:59;;;;;;;2.38;2.22;;;2.10;99.90;;;;;;5014541;28;20100;-74
2022/01/19 01:25:25;;;;;;;10.73;9.43;;;2.10;99.90;;;;;;5032199;28;20029;-74
2022/01/19 01:27:51;;;;;;;1.65;0.77;;;2.20;99.90;;;;;;5032178;28;20030;-74
2022/01/19 01:30:17;;;;;;;0.77;0.77;;;2.10;99.90;;;;;;5032152;28;20037;-74
2022/01/19 01:32:42;;;;;;;10.13;3.35;;;2.00;99.90;;;;;;5014334;28;20108;-74
2022/01/19 01:35:09;;;;;;;0.45;0.45;;;2.00;99.90;;;;;;5032187;28;20088;-73
2022/01/19 01:37:35;;;;;;;0.75;0.75;;;1.80;99.90;;;;;;5032134;28;20432;-74
2022/01/19 01:40:02;;;;;;;0.30;0.30;;;1.80;99.90;;;;;;5032000;28;20045;-74
2022/01/19 01:42:28;;;;;;;0.73;0.70;;;1.80;99.90;;;;;;4997907;28;20370;-74
2022/01/19 01:44:57;;;;;;;1.55;1.35;;;1.90;99.90;;;;;;5032013;28;20088;-74
2022/01/19 01:47:25;;;;;;;0.30;0.30;;;1.80;99.90;;;;;;5014221;28;20025;-74
2022/01/19 01:55:09;;;;;;;2.85;1.95;;;1.60;99.90;;;;;;5031840;28;20021;-74
2022/01/19 01:57:35;;;;;;;1.42;1.10;;;1.50;99.90;;;;;;5031866;28;20056;-73
2022/01/19 02:00:01;;;;;;;0.57;0.57;;;1.40;99.90;;;;;;5014306;28;20053;-73
2022/01/19 02:02:27;;;;;;;1.33;1.23;;;1.40;99.90;;;;;;5031703;28;20503;-73
2022/01/19 02:04:53;;;;;;;2.60;2.20;;;1.40;99.90;;;;;;5031799;28;20025;-74
2022/01/19 02:07:33;;;;;;;0.68;0.60;;;1.50;99.90;;;;;;5013875;28;20026;-73
2022/01/19 02:10:02;;;;;;;0.70;0.70;;;1.50;99.90;;;;;;5030424;28;20030;-74
2022/01/19 02:23:36;;;;;;;3.65;2.25;;;1.30;99.90;;;;;;5031613;28;20096;-73
2022/01/19 02:26:08;;;;;;;2.80;1.92;;;1.40;99.90;;;;;;5035529;28;20033;-74
2022/01/19 02:36:53;;;;;;;0.40;0.40;;;1.40;99.90;;;;;;5017483;28;20033;-74
2022/01/19 02:42:08;;;;;;;1.52;1.38;;;1.50;99.90;;;;;;5017483;28;20037;-74
2022/01/19 02:49:52;;;;;;;0.40;0.40;;;1.60;99.90;;;;;;5035140;28;20030;-74
2022/01/19 02:52:20;;;;;;;0.35;0.35;;;1.50;99.90;;;;;;5035115;28;20104;-74
2022/01/19 02:54:46;;;;;;;0.32;0.32;;;1.60;99.90;;;;;;5017427;28;20025;-74
2022/01/19 02:57:13;;;;;;;0.40;0.40;;;1.60;99.90;;;;;;5017164;28;20025;-73
2022/01/19 03:06:16;;;;;;;0.40;0.40;;;1.60;99.90;;;;;;5035048;28;20021;-74
2022/01/19 03:11:02;;;;;;;0.38;0.38;;;2.00;99.90;;;;;;4957241;28;20027;-74
2022/01/19 03:13:29;;;;;;;0.30;0.30;;;1.90;99.90;;;;;;4957705;28;20037;-74
2022/01/19 03:15:54;;;;;;;0.30;0.30;;;1.90;99.90;;;;;;5001883;28;20034;-74
2022/01/19 03:18:20;;;;;;;1.15;1.15;;;1.60;99.90;;;;;;5016953;28;20047;-73
2022/01/19 03:20:46;;;;;;;0.88;0.88;;;1.60;99.90;;;;;;5034639;28;20324;-74
2022/01/19 03:23:19;;;;;;;0.30;0.30;;;1.50;99.90;;;;;;5033201;28;20033;-74
2022/01/19 03:25:45;;;;;;;3.55;1.48;;;1.70;99.90;;;;;;5034442;28;20041;-73
2022/01/19 03:28:11;;;;;;;0.68;0.68;;;1.70;99.90;;;;;;5034445;28;20025;-74
2022/01/19 03:30:37;;;;;;;0.40;0.40;;;1.70;99.90;;;;;;5034346;28;20030;-74
2022/01/19 03:33:02;;;;;;;0.25;0.25;;;1.70;99.90;;;;;;5016655;28;20021;-74
2022/01/19 03:35:28;;;;;;;0.30;0.30;;;1.60;99.90;;;;;;5015897;28;20025;-74
2022/01/19 03:37:54;;;;;;;0.25;0.25;;;1.80;99.90;;;;;;5034071;28;20033;-74
2022/01/19 03:40:21;;;;;;;2.55;1.70;;;2.00;99.90;;;;;;5016635;28;20400;-74
2022/01/19 03:42:47;;;;;;;1.10;1.10;;;1.90;99.90;;;;;;5016372;28;20132;-74
2022/01/19 03:45:13;;;;;;;0.70;0.70;;;1.80;99.90;;;;;;5016434;28;20144;-74
2022/01/19 03:47:42;;;;;;;2.13;1.50;;;1.80;99.90;;;;;;5016153;28;20503;-73
2022/01/19 03:50:08;;;;;;;0.40;0.40;;;1.80;99.90;;;;;;5016105;28;20549;-74
2022/01/19 03:52:34;;;;;;;1.13;1.02;;;1.80;99.90;;;;;;5033993;28;20096;-74
2022/01/19 03:55:00;;;;;;;0.60;0.60;;;1.80;99.90;;;;;;5034085;28;20026;-74
2022/01/19 03:57:26;;;;;;;0.20;0.20;;;1.70;99.90;;;;;;5033874;28;20450;-73
2022/01/19 03:59:52;;;;;;;0.40;0.40;;;1.50;99.90;;;;;;5033884;28;20061;-73
2022/01/19 04:02:19;;;;;;;0.30;0.30;;;1.50;99.90;;;;;;5033678;28;20112;-73
2022/01/19 04:05:02;;;;;;;1.10;1.10;;;1.40;99.90;;;;;;5016097;28;20032;-74
2022/01/19 04:07:27;;;;;;;2.00;1.33;;;1.50;99.90;;;;;;5033759;28;20238;-73
2022/01/19 04:09:53;;;;;;;1.38;1.33;;;1.30;99.90;;;;;;5015864;28;20033;-74
2022/01/19 04:12:31;;;;;;;4.38;2.90;;;1.00;99.90;;;;;;5034026;28;20079;-73
2022/01/19 04:14:57;;;;;;;1.20;1.17;;;0.70;99.90;;;;;;5015863;28;20370;-73
2022/01/19 04:17:23;;;;;;;2.70;1.70;;;0.40;99.90;;;;;;5015792;28;20100;-73
2022/01/19 04:19:49;;;;;;;0.88;0.88;;;0.20;99.90;;;;;;5033495;28;20052;-73
2022/01/19 04:22:18;;;;;;;2.10;1.55;;;0.20;99.90;;;;;;5016011;28;20035;-74
2022/01/19 04:24:46;;;;;;;0.47;0.47;;;0.30;99.90;;;;;;5015767;28;20374;-73
2022/01/19 04:30:07;;;;;;;;;;;0.50;99.90;;;;;;5033856;28;20108;-72
2022/01/19 04:32:44;;;;;;;0.50;0.50;;;0.70;99.90;;;;;;5033510;28;20372;-73
2022/01/19 04:35:13;;;;;;;0.25;0.25;;;0.90;99.90;;;;;;5032185;28;20096;-72
2022/01/19 05:07:23;;;;;;;0.30;0.30;;;1.50;99.90;;;;;;5014682;28;20443;-74
2022/01/19 05:13:24;;;;;;;0.95;0.95;;;1.50;99.90;;;;;;5014801;28;20753;-74
2022/01/19 05:15:34;;;;;;;0.40;0.40;;;1.40;99.90;;;;;;5014599;28;20025;-73
2022/01/19 05:18:01;;;;;;;0.30;0.30;;;1.30;99.90;;;;;;5032454;28;20024;-73
2022/01/19 05:20:27;;;;;;;0.30;0.30;;;1.40;99.90;;;;;;5032398;28;20454;-73
2022/01/19 05:22:52;;;;;;;3.20;1.95;;;1.60;99.90;;;;;;5014684;28;20101;-74
2022/01/19 05:25:18;;;;;;;4.47;1.75;;;1.70;99.90;;;;;;5032265;28;20036;-74
2022/01/19 05:27:44;;;;;;;0.30;0.30;;;1.70;99.90;;;;;;5032141;28;20029;-74
2022/01/19 05:30:10;;;;;;;1.17;1.10;;;1.70;99.90;;;;;;5030993;28;20040;-73
2022/01/19 05:32:36;;;;;;;0.20;0.20;;;1.70;99.90;;;;;;5032131;28;20029;-74
2022/01/19 05:35:02;;;;;;;0.30;0.30;;;1.60;99.90;;;;;;5032310;28;20022;-74
2022/01/19 05:37:28;;;;;;;1.58;1.48;;;1.60;99.90;;;;;;5031894;28;20025;-74
2022/01/19 05:39:53;;;;;;;0.32;0.32;;;1.60;99.90;;;;;;5014266;28;20041;-73
2022/01/19 05:42:19;;;;;;;0.65;0.65;;;1.50;99.90;;;;;;5014351;28;20056;-74
2022/01/19 05:44:47;;;;;;;0.73;0.73;;;1.40;99.90;;;;;;5032048;28;20177;-74
2022/01/19 05:47:14;;;;;;;0.32;0.32;;;1.30;99.90;;;;;;5014015;28;20021;-74
2022/01/19 05:49:40;;;;;;;3.03;2.40;;;1.30;99.90;;;;;;5030651;28;20072;-74
2022/01/19 05:52:06;;;;;;;2.63;1.85;;;1.00;99.90;;;;;;5031759;28;20025;-73
2022/01/19 05:54:33;;;;;;;0.38;0.38;;;0.80;99.90;;;;;;5014331;28;20022;-74
2022/01/19 05:57:00;;;;;;;0.55;0.55;;;0.80;99.90;;;;;;5014098;28;20500;-74
2022/01/19 05:59:26;;;;;;;0.30;0.30;;;1.00;99.90;;;;;;5031707;28;20197;-73
2022/01/19 06:01:52;;;;;;;0.38;0.38;;;0.90;99.90;;;;;;5014190;28;20492;-74
2022/01/19 06:04:18;;;;;;;1.08;0.70;;;1.10;99.90;;;;;;5013782;28;20022;-74
2022/01/19 06:06:43;;;;;;;0.80;0.80;;;1.30;99.90;;;;;;5013784;28;20048;-74
2022/01/19 06:09:10;;;;;;;0.30;0.30;;;1.40;99.90;;;;;;5031777;28;20021;-74
2022/01/19 06:11:36;;;;;;;0.30;0.30;;;1.30;99.90;;;;;;5013919;28;20025;-74
2022/01/19 06:14:02;;;;;;;0.63;0.63;;;1.30;99.90;;;;;;5031639;28;20385;-73
2022/01/19 06:16:28;;;;;;;0.40;0.40;;;1.30;99.90;;;;;;5013890;28;20018;-74
2022/01/19 06:18:54;;;;;;;0.30;0.30;;;1.30;99.90;;;;;;5031715;28;20021;-74
2022/01/19 06:21:19;;;;;;;0.35;0.35;;;1.30;99.90;;;;;;5014045;28;20033;-73
2022/01/19 06:23:45;;;;;;;0.40;0.40;;;1.00;99.90;;;;;;5013787;28;20026;-74
2022/01/19 06:26:11;;;;;;;0.40;0.40;;;1.00;99.90;;;;;;5031411;28;20449;-74
2022/01/19 06:28:36;;;;;;;0.30;0.30;;;0.80;99.90;;;;;;5031516;28;20076;-74
2022/01/19 06:31:02;;;;;;;2.45;2.25;;;0.80;99.90;;;;;;5013755;28;20466;-73
2022/01/19 06:33:28;;;;;;;0.40;0.40;;;0.80;99.90;;;;;;5031425;28;20029;-74
2022/01/19 06:35:54;;;;;;;0.30;0.30;;;0.70;99.90;;;;;;5013598;28;20025;-73
2022/01/19 06:38:21;;;;;;;0.20;0.20;;;0.70;99.90;;;;;;5012562;28;20034;-73
2022/01/19 06:40:47;;;;;;;0.30;0.30;;;0.80;99.90;;;;;;5036661;28;20472;-74
2022/01/19 06:43:13;;;;;;;0.63;0.63;;;0.80;99.90;;;;;;5041557;28;20151;-73
2022/01/19 06:45:39;;;;;;;1.45;1.38;;;0.70;99.90;;;;;;5019425;28;20116;-73
2022/01/19 06:48:05;;;;;;;0.85;0.85;;;0.90;99.90;;;;;;5020018;28;20504;-74
2022/01/19 06:50:31;;;;;;;0.77;0.73;;;0.90;99.90;;;;;;5032986;28;20033;-74
2022/01/19 06:52:57;;;;;;;0.95;0.88;;;0.80;99.90;;;;;;5043973;28;20018;-74
2022/01/19 06:55:23;;;;;;;0.30;0.30;;;0.80;99.90;;;;;;5012876;28;20041;-74
2022/01/19 06:57:49;;;;;;;0.98;0.98;;;0.60;99.90;;;;;;5013371;28;20097;-74
2022/01/19 07:00:16;;;;;;;0.60;0.60;;;0.80;99.90;;;;;;5013515;28;20034;-73
2022/01/19 07:02:42;;;;;;;0.30;0.30;;;0.80;99.90;;;;;;5030188;28;20061;-74
2022/01/19 07:05:08;;;;;;;0.40;0.40;;;0.60;99.90;;;;;;5050952;28;20046;-73
2022/01/19 07:07:34;;;;;;;0.50;0.50;;;0.60;99.90;;;;;;5033085;28;20033;-74
2022/01/19 07:09:59;;;;;;;0.68;0.68;;;0.70;99.90;;;;;;5033773;28;20032;-74
2022/01/19 07:12:29;;;;;;;0.38;0.38;;;0.90;99.90;;;;;;5054775;28;20472;-74
2022/01/19 07:14:55;;;;;;;0.30;0.30;;;1.00;99.90;;;;;;5054183;28;20037;-74
2022/01/19 07:17:21;;;;;;;0.40;0.40;;;1.20;99.90;;;;;;5045580;28;20033;-73
2022/01/19 07:19:47;;;;;;;0.47;0.47;;;1.00;99.90;;;;;;5025457;28;20095;-73
2022/01/19 07:22:15;;;;;;;0.40;0.40;;;0.90;99.90;;;;;;5045269;28;20070;-74
2022/01/19 07:24:42;;;;;;;0.50;0.50;;;0.80;99.90;;;;;;5053891;28;20048;-74
2022/01/19 07:27:07;;;;;;;0.73;0.73;;;0.80;99.90;;;;;;5018401;28;20029;-74
2022/01/19 07:29:33;;;;;;;2.35;2.25;;;0.70;99.90;;;;;;5030941;28;20381;-74
2022/01/19 07:31:59;;;;;;;0.85;0.85;;;0.70;99.90;;;;;;5014211;28;20481;-74
2022/01/19 07:34:25;;;;;;;0.40;0.40;;;0.80;99.90;;;;;;5038537;28;20494;-74
2022/01/19 07:36:53;;;;;;;0.40;0.40;;;0.80;99.90;;;;;;5017210;28;20029;-73
2022/01/19 07:39:19;;;;;;;0.88;0.88;;;0.70;99.90;;;;;;4998032;28;20044;-73
2022/01/19 07:41:45;;;;;;;0.40;0.40;;;0.80;99.90;;;;;;5017710;28;20066;-73
2022/01/19 07:44:11;;;;;;;3.33;1.85;;;0.80;99.90;;;;;;5025045;28;20432;-73
2022/01/19 07:46:37;;;;;;;0.30;0.30;;;0.80;99.90;;;;;;5034163;28;20036;-74
2022/01/19 07:49:03;;;;;;;0.30;0.30;;;1.00;99.90;;;;;;5032761;28;20029;-74
2022/01/19 07:51:28;;;;;;;1.40;1.33;;;1.20;99.90;;;;;;5033876;28;20057;-74
2022/01/19 07:53:55;;;;;;;8.25;7.70;;;1.30;99.90;;;;;;5032181;28;20037;-74
2022/01/19 07:56:20;;;;;;;1.05;1.02;;;1.30;99.90;;;;;;5038192;28;20033;-74
2022/01/19 07:58:46;;;;;;;0.68;0.68;;;1.20;99.90;;;;;;5046811;28;20399;-74
2022/01/19 08:01:12;;;;;;;3.53;3.22;;;1.30;99.90;;;;;;5053396;28;20036;-73
2022/01/19 08:03:38;;;;;;;1.65;1.40;;;1.30;99.90;;;;;;5023848;28;20025;-72
2022/01/19 08:06:04;;;;;;;0.30;0.30;;;1.50;99.90;;;;;;5032927;28;20349;-73
2022/01/19 08:08:29;;;;;;;3.15;2.95;;;1.60;99.90;;;;;;5015747;28;20493;-73
2022/01/19 08:10:55;;;;;;;0.40;0.40;;;1.60;99.90;;;;;;5015148;28;20030;-74
2022/01/19 08:13:21;;;;;;;0.50;0.50;;;1.50;99.90;;;;;;5031566;28;20048;-74
2022/01/19 08:15:47;;;;;;;0.30;0.30;;;1.50;99.90;;;;;;5021079;28;20053;-74
2022/01/19 08:18:13;;;;;;;1.90;1.13;;;1.70;99.90;;;;;;5029122;28;20115;-74
2022/01/19 08:20:42;;;;;;;2.25;2.15;;;1.70;99.90;;;;;;5031475;28;20029;-74
2022/01/19 08:23:08;;;;;;;0.30;0.30;;;1.60;99.90;;;;;;5031407;28;20029;-74
2022/01/19 08:25:34;;;;;;;2.75;2.10;;;1.50;99.90;;;;;;5032048;28;20100;-74
2022/01/19 08:27:59;;;;;;;0.30;0.30;;;1.40;99.90;;;;;;5032609;28;20060;-74
2022/01/19 08:30:25;;;;;;;0.30;0.30;;;1.20;99.90;;;;;;5038115;28;20549;-74
2022/01/19 08:32:51;;;;;;;0.70;0.70;;;1.50;99.90;;;;;;5024161;28;20060;-74
2022/01/19 08:35:17;;;;;;;0.30;0.30;;;1.60;99.90;;;;;;5031808;28;20025;-74
2022/01/19 08:37:42;;;;;;;1.38;1.30;;;1.70;99.90;;;;;;5019522;28;20030;-74
2022/01/19 08:40:09;;;;;;;0.30;0.30;;;1.80;99.90;;;;;;5031834;28;20041;-74
2022/01/19 08:42:36;;;;;;;2.80;1.75;;;1.80;99.90;;;;;;5025028;28;20136;-74
2022/01/19 08:45:07;;;;;;;0.32;0.32;;;1.80;99.90;;;;;;5032569;28;20124;-74
2022/01/19 08:47:38;;;;;;;1.88;1.67;;;1.60;99.90;;;;;;5018965;28;20026;-74
2022/01/19 08:50:07;;;;;;;0.30;0.30;;;1.60;99.90;;;;;;5031419;28;20393;-74
2022/01/19 08:52:34;;;;;;;0.30;0.30;;;1.80;99.90;;;;;;5041471;28;20026;-75
2022/01/19 08:55:00;;;;;;;0.77;0.77;;;1.90;99.90;;;;;;5031404;28;20030;-74
2022/01/19 08:57:25;;;;;;;1.67;1.58;;;1.80;99.90;;;;;;5031118;28;20028;-74
2022/01/19 08:59:52;;;;;;;0.30;0.30;;;1.90;99.90;;;;;;5031098;28;20013;-74
2022/01/19 09:02:18;;;;;;;0.68;0.68;;;2.10;99.90;;;;;;5016307;28;20128;-74
2022/01/19 09:04:45;;;;;;;0.30;0.30;;;2.20;99.90;;;;;;5032076;28;20052;-74
2022/01/19 09:07:11;;;;;;;0.30;0.30;;;2.10;99.90;;;;;;4999491;28;20022;-74
2022/01/19 09:09:36;;;;;;;0.30;0.30;;;2.20;99.90;;;;;;5030412;28;20105;-74
2022/01/19 09:12:03;;;;;;;0.63;0.63;;;2.30;99.90;;;;;;5031235;28;20104;-74
2022/01/19 09:14:30;;;;;;;0.40;0.40;;;2.40;99.90;;;;;;5033976;28;20030;-74
2022/01/19 09:16:56;;;;;;;0.50;0.50;;;2.50;99.90;;;;;;5030951;28;20057;-74
2022/01/19 09:19:22;;;;;;;0.30;0.30;;;2.70;99.90;;;;;;5029547;28;20429;-74
2022/01/19 09:21:49;;;;;;;0.40;0.40;;;2.90;99.90;;;;;;5030927;28;20041;-75
2022/01/19 09:24:16;;;;;;;3.60;1.45;;;3.00;99.90;;;;;;5035050;28;20028;-74
2022/01/19 09:26:42;;;;;;;0.30;0.30;;;3.10;99.90;;;;;;5019655;28;20500;-74
2022/01/19 09:29:08;;;;;;;0.30;0.30;;;3.10;99.90;;;;;;5031366;28;20028;-74
2022/01/19 09:31:34;;;;;;;0.55;0.55;;;3.10;99.90;;;;;;5030518;28;20029;-74
2022/01/19 09:34:14;;;;;;;0.40;0.40;;;3.40;99.90;;;;;;5030954;28;20377;-74
2022/01/19 09:36:48;;;;;;;0.30;0.30;;;3.50;99.90;;;;;;5021182;28;20559;-74
2022/01/19 09:39:19;;;;;;;1.02;0.80;;;3.70;99.90;;;;;;5018702;28;20040;-74
2022/01/19 09:41:46;;;;;;;0.38;0.38;;;3.60;99.90;;;;;;5020806;28;20033;-74
2022/01/19 09:44:12;;;;;;;0.20;0.20;;;3.90;99.90;;;;;;5001181;28;20030;-74
2022/01/19 09:46:39;;;;;;;0.30;0.30;;;3.90;99.90;;;;;;5030154;28;20032;-74
2022/01/19 09:49:05;;;;;;;0.30;0.30;;;4.10;99.90;;;;;;5030602;28;20068;-74
2022/01/19 09:51:32;;;;;;;1.33;1.27;;;4.30;99.90;;;;;;5018290;28;20393;-74
2022/01/19 09:53:57;;;;;;;0.20;0.20;;;4.60;99.90;;;;;;5030868;28;20029;-74
2022/01/19 09:56:23;;;;;;;0.43;0.43;;;5.00;99.90;;;;;;5017528;28;20583;-75
2022/01/19 09:58:49;;;;;;;0.43;0.43;;;5.30;99.90;;;;;;5013140;28;20045;-74
2022/01/19 10:01:20;;;;;;;2.60;1.10;;;5.60;99.90;;;;;;5030420;28;20075;-74
2022/01/19 10:03:47;;;;;;;1.23;1.15;;;5.80;99.90;;;;;;5017736;28;20037;-74
2022/01/19 10:06:17;;;;;;;0.20;0.20;;;6.30;99.90;;;;;;5030307;28;20058;-74
2022/01/19 10:08:51;;;;;;;0.20;0.20;;;6.70;99.90;;;;;;5010976;28;20030;-74
2022/01/19 10:19:32;;;;;;;0.20;0.20;;;9.00;93.10;;;;;;5030569;28;20075;-74
2022/01/19 10:22:16;;;;;;;1.70;1.58;;;9.40;90.90;;;;;;5012755;28;20030;-74
2022/01/19 10:24:52;;;;;;;0.40;0.40;;;10.20;87.60;;;;;;5027566;28;20029;-74
2022/01/19 10:27:40;;;;;;;6.22;2.42;;;10.90;81.30;;;;;;5029635;28;20112;-74
2022/01/19 10:30:05;;;;;;;0.88;0.63;;;11.50;77.70;;;;;;5003053;28;20555;-74
2022/01/19 10:32:55;;;;;;;0.30;0.25;;;11.90;72.90;;;;;;5029108;28;20029;-74
2022/01/19 10:35:29;;;;;;;0.43;0.43;;;12.10;71.00;;;;;;5026181;28;20509;-74
2022/01/19 10:38:15;;;;;;;1.17;1.08;;;12.70;67.20;;;;;;5027944;28;20049;-74
2022/01/19 10:40:55;;;;;;;0.63;0.63;;;12.70;64.80;;;;;;5021831;28;20034;-74
2022/01/19 10:43:35;;;;;;;0.10;0.10;;;12.80;62.90;;;;;;5031162;28;20117;-74
2022/01/19 10:46:23;;;;;;;0.40;0.40;;;13.20;62.70;;;;;;5030961;28;20021;-75
2022/01/19 10:49:05;;;;;;;0.10;0.10;;;13.50;59.90;;;;;;5018561;28;20073;-74
2022/01/19 10:51:45;;;;;;;1.33;0.80;;;14.00;59.50;;;;;;5028223;28;20032;-75
2022/01/19 10:54:20;;;;;;;0.20;0.20;;;14.00;57.40;;;;;;5031977;28;20049;-75
2022/01/19 10:56:48;;;;;;;0.10;0.10;;;14.20;57.50;;;;;;5027899;28;20026;-74
2022/01/19 10:59:16;;;;;;;0.20;0.20;;;14.60;57.00;;;;;;5095975;22;20039;-78
2022/01/19 11:01:42;;;;;;;0.13;0.13;;;14.50;56.40;;;;;;5025190;28;20029;-77
2022/01/19 11:04:40;;;;;;;0.20;0.20;;;15.20;55.50;;;;;;5041058;28;20071;-77
2022/01/19 11:07:08;;;;;;;0.35;0.35;;;15.50;54.00;;;;;;5052114;28;20025;-76
2022/01/19 11:09:43;;;;;;;6.82;2.63;;;15.50;54.30;;;;;;5038463;28;20115;-76
2022/01/19 11:12:13;;;;;;;0.10;0.10;;;15.70;54.00;;;;;;5035957;28;20090;-76
2022/01/19 11:14:40;;;;;;;0.38;0.38;;;16.10;52.80;;;;;;5023102;28;20024;-76
2022/01/19 11:17:07;;;;;;;0.15;0.15;;;16.50;51.80;;;;;;5021898;28;20029;-77
2022/01/19 11:19:45;;;;;;;0.10;0.10;;;16.90;48.70;;;;;;5047073;28;20032;-77
2022/01/19 11:22:26;;;;;;;1.17;1.17;;;17.10;44.60;;;;;;5052675;28;20111;-77
2022/01/19 11:25:12;;;;;;;0.38;0.38;;;17.00;42.00;;;;;;5037041;28;20021;-77
2022/01/19 11:27:40;;;;;;;0.10;0.10;;;17.00;40.90;;;;;;5042237;28;20028;-77
2022/01/19 11:30:16;;;;;;;0.20;0.20;;;16.60;41.60;;;;;;5037768;28;20025;-77
2022/01/19 11:32:44;;;;;;;11.18;0.38;;;16.50;40.90;;;;;;5035484;28;20021;-77
2022/01/19 11:35:31;;;;;;;2.58;1.00;;;16.60;41.00;;;;;;5052778;28;20075;-76
2022/01/19 11:37:56;;;;;;;0.10;0.10;;;16.60;41.70;;;;;;5050817;28;20103;-77
2022/01/19 11:40:33;;;;;;;0.10;0.10;;;17.10;41.30;;;;;;5045038;28;20128;-77
2022/01/19 11:43:19;;;;;;;0.10;0.10;;;17.10;40.40;;;;;;5041970;28;20021;-76
2022/01/19 11:45:45;;;;;;;1.80;0.30;;;16.60;39.70;;;;;;5056498;28;20017;-78
2022/01/19 11:48:21;;;;;;;3.10;1.20;;;16.60;41.00;;;;;;5056781;28;20047;-78
2022/01/19 11:50:48;;;;;;;4.65;0.85;;;17.20;39.70;;;;;;5057764;28;20396;-77
2022/01/19 11:53:15;;;;;;;0.65;0.28;;;16.70;38.90;;;;;;5031880;28;20123;-77
2022/01/19 11:56:00;;;;;;;0.20;0.20;;;16.20;40.30;;;;;;5042744;28;20029;-77
2022/01/19 11:58:26;;;;;;;0.43;0.40;;;15.90;41.20;;;;;;5056245;28;20057;-78
2022/01/19 12:00:55;;;;;;;3.65;1.58;;;15.40;41.10;;;;;;5048878;28;20039;-78
2022/01/19 12:03:33;;;;;;;0.10;0.10;;;15.00;41.40;;;;;;5045510;28;20031;-76
2022/01/19 12:05:59;;;;;;;0.10;0.10;;;15.30;42.40;;;;;;5051770;28;20049;-76
2022/01/19 12:08:30;;;;;;;7.65;0.32;;;15.10;42.10;;;;;;5039371;28;20028;-77
2022/01/19 12:11:01;;;;;;;2.53;1.25;;;15.60;42.60;;;;;;5040853;28;20025;-78
2022/01/19 12:13:55;;;;;;;0.10;0.10;;;16.60;41.00;;;;;;5056346;28;20029;-77
2022/01/19 12:19:08;;;;;;;0.20;0.20;;;15.80;39.40;;;;;;5054820;28;20110;-77
2022/01/19 12:21:34;;;;;;;0.10;0.10;;;15.30;42.10;;;;;;5049735;28;20025;-77
2022/01/19 12:24:22;;;;;;;5.43;0.38;;;16.30;41.00;;;;;;5042575;28;20033;-77
2022/01/19 12:26:56;;;;;;;0.00;0.00;;;16.70;39.60;;;;;;5030964;28;20481;-77
2022/01/19 12:29:36;;;;;;;0.63;0.63;;;16.60;40.40;;;;;;5057304;28;20028;-78
2022/01/19 12:32:05;;;;;;;0.57;0.35;;;16.40;39.50;;;;;;5054731;28;20086;-77
2022/01/19 12:34:50;;;;;;;0.13;0.13;;;15.60;40.70;;;;;;5022780;28;20025;-78
2022/01/19 12:37:25;;;;;;;0.10;0.10;;;15.40;41.80;;;;;;5041604;28;20036;-77
2022/01/19 12:39:52;;;;;;;0.10;0.10;;;15.70;42.70;;;;;;5051420;28;20036;-76
2022/01/19 12:42:24;;;;;;;0.30;0.30;;;16.00;41.80;;;;;;5052411;28;20028;-77
2022/01/19 12:44:56;;;;;;;0.30;0.30;;;14.90;41.80;;;;;;5045150;28;20044;-77
2022/01/19 12:47:24;;;;;;;1.90;0.77;;;13.90;44.20;;;;;;5051551;28;20523;-77
2022/01/19 12:49:53;;;;;;;2.40;1.13;;;12.50;46.70;;;;;;5051499;28;20487;-77
2022/01/19 12:52:22;;;;;;;3.17;1.88;;;11.40;49.80;;;;;;5044690;28;20025;-76
2022/01/19 12:54:50;;;;;;;1.45;1.35;;;11.20;51.70;;;;;;5050466;28;20107;-77
2022/01/19 12:57:17;;;;;;;1.85;1.45;;;11.00;52.10;;;;;;5051344;28;20407;-76
2022/01/19 12:59:44;;;;;;;0.63;0.63;;;10.00;53.20;;;;;;5033600;28;20079;-77
2022/01/19 13:02:15;;;;;;;0.40;0.40;;;9.80;55.60;;;;;;5050902;28;20025;-77
2022/01/19 13:04:46;;;;;;;2.72;2.58;;;9.90;56.00;;;;;;5045206;28;20114;-77
2022/01/19 13:07:16;;;;;;;1.85;1.55;;;9.90;56.20;;;;;;5052443;28;20357;-78
2022/01/19 13:12:59;;;;;;;7.60;0.50;;;11.90;53.40;;;;;;5035014;28;20056;-77
2022/01/19 13:15:39;;;;;;;0.43;0.43;;;12.50;50.80;;;;;;5053263;28;20032;-77
2022/01/19 13:18:05;;;;;;;0.15;0.15;;;12.60;51.00;;;;;;5052534;28;20032;-77
2022/01/19 13:20:31;;;;;;;0.17;0.15;;;13.80;49.70;;;;;;5025313;28;20468;-76
2022/01/19 13:22:57;;;;;;;0.20;0.20;;;14.40;48.10;;;;;;5053547;28;20017;-76
2022/01/19 13:25:26;;;;;;;0.15;0.15;;;15.00;47.40;;;;;;5041713;28;20092;-77
2022/01/19 13:27:55;;;;;;;0.10;0.10;;;15.30;45.50;;;;;;5048810;28;20371;-77
2022/01/19 13:30:23;;;;;;;0.20;0.20;;;15.30;45.60;;;;;;5046848;28;20507;-79
2022/01/19 13:32:49;;;;;;;0.65;0.57;;;15.20;45.40;;;;;;5031651;28;20112;-78
2022/01/19 13:35:15;;;;;;;0.65;0.43;;;14.90;45.50;;;;;;5042908;28;20099;-78
2022/01/19 13:37:51;;;;;;;0.10;0.10;;;14.60;47.10;;;;;;5054315;28;20033;-78
2022/01/19 13:40:23;;;;;;;2.28;2.08;;;14.60;48.10;;;;;;5053998;28;20029;-78
2022/01/19 13:42:50;;;;;;;0.10;0.10;;;13.50;48.10;;;;;;5037293;28;20020;-77
2022/01/19 13:50:48;;;;;;;0.30;0.30;;;11.30;53.20;;;;;;5051624;28;20029;-75
2022/01/19 13:53:14;;;;;;;0.93;0.93;;;11.30;54.80;;;;;;5042459;28;20025;-76
2022/01/19 13:55:41;;;;;;;0.20;0.20;;;11.10;54.10;;;;;;5040756;28;20029;-75
2022/01/19 13:58:15;;;;;;;0.10;0.10;;;11.00;55.10;;;;;;5051064;28;20029;-75
2022/01/19 14:00:57;;;;;;;0.32;0.28;;;11.00;54.40;;;;;;5050695;28;20534;-75
2022/01/19 14:03:25;;;;;;;0.20;0.20;;;10.80;55.30;;;;;;5051280;28;20639;-76
2022/01/19 14:05:55;;;;;;;0.17;0.17;;;10.60;55.90;;;;;;5050231;28;20021;-75
2022/01/19 14:08:47;;;;;;;0.50;0.50;;;10.60;56.40;;;;;;5027122;28;20048;-75
2022/01/19 14:11:23;;;;;;;;;;;10.60;56.70;;;;;;5020046;28;20060;-76
2022/01/19 14:14:01;;;;;;;0.30;0.30;;;10.40;57.10;;;;;;5032033;28;19940;-76
2022/01/19 14:16:35;;;;;;;0.20;0.20;;;10.30;57.30;;;;;;5023579;28;20040;-76
2022/01/19 14:19:25;;;;;;;0.93;0.88;;;10.30;57.30;;;;;;5033849;28;20025;-76
2022/01/19 14:21:58;;;;;;;0.82;0.82;;;10.10;57.30;;;;;;5022105;28;20500;-76
2022/01/19 14:24:25;;;;;;;0.20;0.20;;;10.00;57.40;;;;;;5046715;28;20370;-75
2022/01/19 14:26:59;;;;;;;1.55;1.08;;;9.90;58.20;;;;;;5055197;28;20021;-75
2022/01/19 14:29:26;;;;;;;0.70;0.65;;;9.70;58.30;;;;;;5048608;28;20500;-75
2022/01/19 14:31:56;;;;;;;0.22;0.22;;;9.50;58.80;;;;;;5055615;28;20099;-75
2022/01/19 14:34:42;;;;;;;0.20;0.20;;;9.40;60.10;;;;;;5049440;28;20120;-76
2022/01/19 14:37:16;;;;;;;0.60;0.60;;;9.50;59.90;;;;;;5048830;28;20031;-76
2022/01/19 14:39:46;;;;;;;0.20;0.20;;;9.40;59.60;;;;;;5045546;28;20090;-75
2022/01/19 14:42:12;;;;;;;0.28;0.28;;;9.30;59.60;;;;;;5023858;28;20021;-75
2022/01/19 14:44:42;;;;;;;0.20;0.20;;;9.30;59.70;;;;;;5053213;28;20044;-75
2022/01/19 14:47:25;;;;;;;0.20;0.20;;;9.00;60.50;;;;;;5054262;28;20025;-75